createdAt,value
2023-04-29T00:04:24.189Z,5.47
2023-04-29T00:09:27.633Z,7.03
2023-04-29T00:14:30.021Z,5.67
2023-04-29T00:19:31.983Z,5.43
2023-04-29T00:24:35.531Z,5.73
2023-04-29T00:29:37.641Z,6.57
2023-04-29T00:34:39.549Z,6.83
2023-04-29T00:39:43.149Z,7.30
2023-04-29T00:44:45.208Z,6.33
2023-04-29T00:49:47.572Z,6.83
2023-04-29T00:54:52.213Z,6.00
2023-04-29T00:59:54.422Z,7.37
2023-04-29T01:04:56.522Z,6.90
2023-04-29T01:10:04.362Z,7.10
2023-04-29T01:15:12.529Z,6.97
2023-04-29T01:20:15.120Z,7.50
2023-04-29T01:25:19.094Z,7.20
2023-04-29T01:30:31.732Z,7.60
2023-04-29T01:35:52.312Z,7.37
2023-04-29T01:41:10.403Z,7.07
2023-04-29T01:46:16.416Z,8.17
2023-04-29T01:51:18.740Z,8.30
2023-04-29T01:56:22.240Z,8.73
2023-04-29T02:01:24.666Z,7.20
2023-04-29T02:06:27.007Z,7.93
2023-04-29T02:11:30.501Z,8.37
2023-04-29T02:16:32.895Z,8.57
2023-04-29T02:21:34.685Z,8.40
2023-04-29T02:26:38.175Z,8.33
2023-04-29T02:31:40.058Z,8.87
2023-04-29T02:36:42.226Z,9.83
2023-04-29T02:41:45.670Z,9.00
2023-04-29T02:46:47.768Z,9.20
2023-04-29T02:51:50.038Z,10.13
2023-04-29T02:56:53.801Z,9.27
2023-04-29T03:01:55.986Z,10.10
2023-04-29T03:06:58.423Z,12.10
2023-04-29T03:12:01.955Z,11.83
2023-04-29T03:17:04.471Z,11.80
2023-04-29T03:22:06.775Z,12.30
2023-04-29T03:27:10.381Z,11.43
2023-04-29T03:32:12.521Z,12.77
2023-04-29T03:37:14.682Z,12.57
2023-04-29T03:42:18.208Z,12.40
2023-04-29T03:47:20.281Z,13.23
2023-04-29T03:52:22.351Z,12.77
2023-04-29T03:57:25.789Z,13.07
2023-04-29T04:02:27.689Z,13.77
2023-04-29T04:07:29.966Z,13.17
2023-04-29T04:12:33.071Z,14.07
2023-04-29T04:17:35.664Z,12.57
2023-04-29T04:22:37.759Z,13.20
2023-04-29T04:27:41.273Z,15.77
2023-04-29T04:32:43.047Z,15.90
2023-04-29T04:37:45.228Z,15.33
2023-04-29T04:42:48.642Z,14.80
2023-04-29T04:47:50.774Z,16.07
2023-04-29T04:52:54.676Z,16.33
2023-04-29T04:57:57.748Z,16.03
2023-04-29T05:02:59.896Z,16.33
2023-04-29T05:08:02.105Z,15.93
2023-04-29T05:13:05.630Z,17.13
2023-04-29T05:18:08.122Z,16.70
2023-04-29T05:23:10.363Z,16.27
2023-04-29T05:28:13.713Z,15.40
2023-04-29T05:33:15.806Z,15.97
2023-04-29T05:38:17.954Z,17.33
2023-04-29T05:43:21.513Z,15.20
2023-04-29T05:48:23.716Z,18.17
2023-04-29T05:53:25.910Z,15.67
2023-04-29T05:58:29.346Z,15.43
2023-04-29T06:03:31.603Z,15.57
2023-04-29T06:08:33.649Z,16.00
2023-04-29T06:13:37.083Z,14.07
2023-04-29T06:18:39.572Z,14.73
2023-04-29T06:23:41.409Z,14.30
2023-04-29T06:28:44.700Z,13.77
2023-04-29T06:33:46.832Z,12.93
2023-04-29T06:38:48.799Z,13.13
2023-04-29T06:43:52.550Z,13.60
2023-04-29T06:48:54.684Z,12.43
2023-04-29T06:53:56.950Z,11.50
2023-04-29T06:59:00.473Z,11.50
2023-04-29T07:04:02.651Z,12.83
2023-04-29T07:09:04.555Z,11.57
2023-04-29T07:14:07.715Z,13.00
2023-04-29T07:19:09.876Z,12.73
2023-04-29T07:24:12.077Z,12.57
2023-04-29T07:29:15.556Z,11.90
2023-04-29T07:34:17.357Z,12.53
2023-04-29T07:39:19.462Z,11.23
2023-04-29T07:44:22.586Z,12.07
2023-04-29T07:49:24.443Z,12.23
2023-04-29T07:54:26.429Z,12.00
2023-04-29T07:59:29.967Z,11.00
2023-04-29T08:04:32.027Z,12.03
2023-04-29T08:09:34.397Z,10.63
2023-04-29T08:14:38.248Z,11.00
2023-04-29T08:19:40.594Z,10.87
2023-04-29T08:24:43.146Z,11.60
2023-04-29T08:29:46.641Z,12.13
2023-04-29T08:34:48.805Z,11.67
2023-04-29T08:39:50.509Z,10.77
2023-04-29T08:44:54.457Z,11.07
2023-04-29T08:49:56.862Z,10.53
2023-04-29T08:54:59.907Z,12.70
2023-04-29T09:00:03.983Z,13.40
2023-04-29T09:05:09.970Z,12.77
2023-04-29T09:10:12.561Z,14.50
2023-04-29T09:15:16.063Z,13.90
2023-04-29T09:20:28.182Z,13.50
2023-04-29T09:25:30.396Z,12.93
2023-04-29T09:30:45.754Z,15.37
2023-04-29T09:35:47.535Z,12.40
2023-04-29T09:40:59.116Z,14.50
2023-04-29T09:46:03.607Z,14.23
2023-04-29T09:51:05.506Z,14.70
2023-04-29T09:56:07.661Z,14.67
2023-04-29T10:01:11.495Z,14.87
2023-04-29T10:06:14.124Z,13.90
2023-04-29T10:11:17.529Z,13.03
2023-04-29T10:16:29.226Z,14.03
2023-04-29T10:21:31.707Z,12.47
2023-04-29T10:26:34.880Z,13.60
2023-04-29T10:31:39.810Z,15.97
2023-04-29T10:36:41.672Z,15.60
2023-04-29T10:41:45.502Z,17.00
2023-04-29T10:46:49.104Z,16.33
2023-04-29T10:51:50.860Z,16.47
2023-04-29T10:56:53.602Z,16.87
2023-04-29T11:01:56.665Z,17.13
2023-04-29T11:06:58.686Z,17.20
2023-04-29T11:12:01.688Z,16.10
2023-04-29T11:17:08.958Z,15.67
2023-04-29T11:22:26.077Z,15.07
2023-04-29T11:27:31.586Z,15.03
2023-04-29T11:32:36.880Z,13.93
2023-04-29T11:37:39.246Z,13.70
2023-04-29T11:42:43.915Z,13.27
2023-04-29T11:47:48.983Z,12.57
2023-04-29T11:52:51.339Z,11.93
2023-04-29T11:57:53.806Z,11.10
2023-04-29T12:02:58.794Z,10.97
2023-04-29T12:08:01.000Z,11.33
2023-04-29T12:13:03.567Z,12.23
2023-04-29T12:18:08.465Z,12.07
2023-04-29T12:23:14.742Z,11.73
2023-04-29T12:28:17.137Z,11.70
2023-04-29T12:33:21.477Z,10.47
2023-04-29T12:38:24.296Z,9.73
2023-04-29T12:43:27.301Z,8.63
2023-04-29T12:48:33.212Z,6.37
2023-04-29T12:53:35.964Z,5.90
2023-04-29T12:58:38.924Z,6.20
2023-04-29T13:03:42.537Z,6.97
2023-04-29T13:08:44.457Z,5.43
2023-04-29T13:13:46.204Z,5.07
2023-04-29T13:19:01.801Z,4.87
2023-04-29T13:24:11.141Z,3.33
2023-04-29T13:29:12.832Z,2.87
2023-04-29T13:34:16.057Z,3.70
2023-04-29T13:39:18.030Z,4.37
2023-04-29T13:44:29.235Z,4.90
2023-04-29T13:54:57.046Z,4.03
2023-04-29T14:00:30.592Z,4.10
2023-04-29T14:05:32.236Z,3.90
2023-04-29T14:10:34.693Z,4.50
2023-04-29T14:15:36.827Z,4.57
2023-04-29T14:20:40.740Z,4.60
2023-04-29T14:25:43.084Z,5.17
2023-04-29T14:30:46.993Z,4.90
2023-04-29T14:35:50.997Z,4.20
2023-04-29T14:40:53.182Z,3.77
2023-04-29T14:45:55.451Z,3.53
2023-04-29T14:50:58.602Z,3.40
2023-04-29T14:56:00.447Z,3.50
2023-04-29T15:01:02.601Z,3.50
2023-04-29T15:06:05.859Z,3.77
2023-04-29T15:11:07.613Z,3.40
2023-04-29T15:16:09.749Z,4.03
2023-04-29T15:21:12.954Z,4.10
2023-04-29T15:26:14.980Z,4.07
2023-04-29T15:31:16.747Z,4.07
2023-04-29T15:36:19.833Z,4.10
2023-04-29T15:41:21.596Z,4.83
2023-04-29T15:46:23.580Z,4.63
2023-04-29T15:51:26.859Z,4.83
2023-04-29T15:56:29.974Z,6.43
2023-04-29T16:01:33.669Z,5.80
2023-04-29T16:06:38.329Z,5.30
2023-04-29T16:11:40.310Z,4.73
2023-04-29T16:16:42.140Z,4.63
2023-04-29T16:21:45.791Z,7.33
2023-04-29T16:26:47.969Z,9.33
2023-04-29T16:31:50.851Z,10.80
2023-04-29T16:36:55.192Z,4.90
2023-04-29T16:41:56.939Z,4.57
2023-04-29T16:46:59.798Z,5.20
2023-04-29T16:52:04.038Z,4.30
2023-04-29T16:57:06.239Z,3.33
2023-04-29T17:02:08.572Z,3.40
2023-04-29T17:07:12.301Z,3.40
2023-04-29T17:12:14.305Z,2.60
2023-04-29T17:17:16.505Z,2.57
2023-04-29T17:22:20.026Z,2.17
2023-04-29T17:27:22.457Z,2.40
2023-04-29T17:32:24.486Z,2.60
2023-04-29T17:37:28.087Z,2.10
2023-04-29T17:42:30.155Z,2.57
2023-04-29T17:47:31.902Z,2.67
2023-04-29T17:52:35.168Z,2.43
2023-04-29T17:57:37.042Z,2.50
2023-04-29T18:02:38.876Z,2.10
2023-04-29T18:07:42.207Z,2.47
2023-04-29T18:12:43.981Z,2.37
2023-04-29T18:17:46.482Z,2.50
2023-04-29T18:22:49.823Z,2.70
2023-04-29T18:27:56.977Z,2.63
2023-04-29T18:33:02.191Z,2.37
2023-04-29T18:38:05.358Z,2.90
2023-04-29T18:43:07.550Z,2.83
2023-04-29T18:48:09.290Z,3.00
2023-04-29T18:53:12.489Z,2.43
2023-04-29T18:58:14.643Z,2.57
2023-04-29T19:03:16.612Z,3.00
2023-04-29T19:08:20.831Z,2.93
2023-04-29T19:13:24.072Z,2.67
2023-04-29T19:18:26.963Z,2.80
2023-04-29T19:23:30.337Z,2.40
2023-04-29T19:28:32.380Z,2.57
2023-04-29T19:33:34.940Z,2.80
2023-04-29T19:38:38.136Z,2.90
2023-04-29T19:43:40.391Z,2.60
2023-04-29T19:48:42.120Z,3.47
2023-04-29T19:53:45.655Z,2.83
2023-04-29T19:58:47.975Z,3.17
2023-04-29T20:03:50.468Z,3.30
2023-04-29T20:08:53.509Z,3.10
2023-04-29T20:13:55.283Z,2.67
2023-04-29T20:18:57.467Z,2.83
2023-04-29T20:24:01.079Z,4.00
2023-04-29T20:29:03.289Z,2.53
2023-04-29T20:34:05.053Z,3.13
2023-04-29T20:39:08.190Z,3.60
2023-04-29T20:44:09.971Z,3.60
2023-04-29T20:49:12.164Z,3.20
2023-04-29T20:54:15.571Z,4.47
2023-04-29T20:59:17.311Z,4.47
2023-04-29T21:04:19.510Z,4.67
2023-04-29T21:09:22.989Z,5.80
2023-04-29T21:14:24.787Z,5.40
2023-04-29T21:19:27.316Z,5.00
2023-04-29T21:24:30.401Z,4.87
2023-04-29T21:29:32.588Z,4.57
2023-04-29T21:34:34.957Z,4.53
2023-04-29T21:39:38.013Z,3.97
2023-04-29T21:44:40.185Z,5.20
2023-04-29T21:49:42.192Z,4.37
2023-04-29T21:54:45.670Z,3.67
2023-04-29T21:59:47.834Z,4.70
2023-04-29T22:04:50.693Z,3.77
2023-04-29T22:09:54.481Z,3.97
2023-04-29T22:14:56.783Z,4.07
2023-04-29T22:19:58.922Z,4.13
2023-04-29T22:25:02.298Z,3.83
2023-04-29T22:30:05.227Z,4.00
2023-04-29T22:35:08.082Z,4.07
2023-04-29T22:40:13.482Z,3.87
2023-04-29T22:45:15.749Z,3.77
2023-04-29T22:50:17.933Z,3.53
2023-04-29T22:55:21.583Z,3.23
2023-04-29T23:00:23.644Z,3.63
2023-04-29T23:05:25.748Z,3.73
2023-04-29T23:10:29.181Z,4.40
2023-04-29T23:15:31.355Z,4.20
2023-04-29T23:20:33.128Z,3.77
2023-04-29T23:25:36.218Z,3.93
2023-04-29T23:30:38.658Z,3.33
2023-04-29T23:35:40.700Z,3.77
2023-04-29T23:40:44.151Z,3.53
2023-04-29T23:45:46.349Z,3.60
2023-04-29T23:50:48.549Z,4.33
2023-04-29T23:55:52.052Z,3.50
